sensor_id;sensor_type;location;lat;lon;timestamp;P1;durP1;ratioP1;P2;durP2;ratioP2
8584;SDS011;7180;52.742;11.420;2023-03-31T00:00:30;16.43;;;15.23;;
8584;SDS011;7180;52.742;11.420;2023-03-31T00:02:56;16.47;;;15.37;;
8584;SDS011;7180;52.742;11.420;2023-03-31T00:05:22;16.33;;;15.30;;
8584;SDS011;7180;52.742;11.420;2023-03-31T00:07:51;16.23;;;15.20;;
8584;SDS011;7180;52.742;11.420;2023-03-31T00:10:16;16.13;;;15.23;;
8584;SDS011;7180;52.742;11.420;2023-03-31T00:12:43;16.23;;;15.03;;
8584;SDS011;7180;52.742;11.420;2023-03-31T00:15:08;16.23;;;15.00;;
8584;SDS011;7180;52.742;11.420;2023-03-31T00:17:34;16.17;;;15.00;;
8584;SDS011;7180;52.742;11.420;2023-03-31T00:19:59;16.70;;;15.40;;
8584;SDS011;7180;52.742;11.420;2023-03-31T00:22:28;16.33;;;15.33;;
8584;SDS011;7180;52.742;11.420;2023-03-31T00:24:54;16.37;;;15.23;;
8584;SDS011;7180;52.742;11.420;2023-03-31T00:27:19;16.20;;;14.90;;
8584;SDS011;7180;52.742;11.420;2023-03-31T00:29:44;16.50;;;15.40;;
8584;SDS011;7180;52.742;11.420;2023-03-31T00:32:12;16.13;;;14.93;;
8584;SDS011;7180;52.742;11.420;2023-03-31T00:34:38;16.40;;;15.20;;
8584;SDS011;7180;52.742;11.420;2023-03-31T00:37:04;16.47;;;15.27;;
8584;SDS011;7180;52.742;11.420;2023-03-31T00:39:30;16.77;;;15.27;;
8584;SDS011;7180;52.742;11.420;2023-03-31T00:42:00;17.00;;;15.70;;
8584;SDS011;7180;52.742;11.420;2023-03-31T00:44:27;16.57;;;15.27;;
8584;SDS011;7180;52.742;11.420;2023-03-31T00:47:03;16.10;;;15.10;;
8584;SDS011;7180;52.742;11.420;2023-03-31T00:49:33;17.40;;;15.80;;
8584;SDS011;7180;52.742;11.420;2023-03-31T00:52:18;17.80;;;16.40;;
8584;SDS011;7180;52.742;11.420;2023-03-31T00:54:46;17.20;;;15.90;;
8584;SDS011;7180;52.742;11.420;2023-03-31T00:57:12;16.83;;;15.47;;
8584;SDS011;7180;52.742;11.420;2023-03-31T01:00:01;16.83;;;15.53;;
8584;SDS011;7180;52.742;11.420;2023-03-31T01:02:23;16.27;;;15.17;;
8584;SDS011;7180;52.742;11.420;2023-03-31T01:04:53;16.60;;;15.40;;
8584;SDS011;7180;52.742;11.420;2023-03-31T01:07:23;16.27;;;15.07;;
8584;SDS011;7180;52.742;11.420;2023-03-31T01:09:49;16.60;;;15.30;;
8584;SDS011;7180;52.742;11.420;2023-03-31T01:12:18;16.50;;;15.20;;
8584;SDS011;7180;52.742;11.420;2023-03-31T01:14:43;16.67;;;15.60;;
8584;SDS011;7180;52.742;11.420;2023-03-31T01:17:09;16.37;;;15.23;;
8584;SDS011;7180;52.742;11.420;2023-03-31T01:19:41;16.70;;;15.40;;
8584;SDS011;7180;52.742;11.420;2023-03-31T01:30:42;16.63;;;15.13;;
8584;SDS011;7180;52.742;11.420;2023-03-31T01:33:14;16.10;;;15.00;;
8584;SDS011;7180;52.742;11.420;2023-03-31T01:40:39;15.30;;;14.10;;
8584;SDS011;7180;52.742;11.420;2023-03-31T01:48:11;15.03;;;14.03;;
8584;SDS011;7180;52.742;11.420;2023-03-31T01:50:45;15.17;;;13.97;;
8584;SDS011;7180;52.742;11.420;2023-03-31T01:53:15;16.33;;;15.00;;
8584;SDS011;7180;52.742;11.420;2023-03-31T01:55:47;15.60;;;14.50;;
8584;SDS011;7180;52.742;11.420;2023-03-31T01:58:19;16.00;;;14.60;;
8584;SDS011;7180;52.742;11.420;2023-03-31T02:00:50;15.57;;;14.47;;
8584;SDS011;7180;52.742;11.420;2023-03-31T02:03:35;15.10;;;13.93;;
8584;SDS011;7180;52.742;11.420;2023-03-31T02:06:04;14.57;;;13.57;;
8584;SDS011;7180;52.742;11.420;2023-03-31T02:08:37;14.93;;;13.73;;
8584;SDS011;7180;52.742;11.420;2023-03-31T02:11:04;14.47;;;13.47;;
8584;SDS011;7180;52.742;11.420;2023-03-31T02:13:29;15.23;;;14.03;;
8584;SDS011;7180;52.742;11.420;2023-03-31T02:15:57;15.57;;;14.23;;
8584;SDS011;7180;52.742;11.420;2023-03-31T02:18:25;14.87;;;13.77;;
8584;SDS011;7180;52.742;11.420;2023-03-31T02:20:52;15.93;;;14.60;;
8584;SDS011;7180;52.742;11.420;2023-03-31T02:23:19;15.03;;;13.63;;
8584;SDS011;7180;52.742;11.420;2023-03-31T02:25:48;15.20;;;14.00;;
8584;SDS011;7180;52.742;11.420;2023-03-31T02:28:17;15.43;;;13.93;;
8584;SDS011;7180;52.742;11.420;2023-03-31T02:33:17;14.80;;;13.70;;
8584;SDS011;7180;52.742;11.420;2023-03-31T02:35:43;15.47;;;14.00;;
8584;SDS011;7180;52.742;11.420;2023-03-31T02:38:08;14.35;;;13.15;;
8584;SDS011;7180;52.742;11.420;2023-03-31T02:40:35;14.37;;;13.37;;
8584;SDS011;7180;52.742;11.420;2023-03-31T02:43:00;14.63;;;13.43;;
8584;SDS011;7180;52.742;11.420;2023-03-31T02:45:35;15.00;;;13.53;;
8584;SDS011;7180;52.742;11.420;2023-03-31T02:48:01;14.80;;;13.70;;
8584;SDS011;7180;52.742;11.420;2023-03-31T02:50:28;14.70;;;13.60;;
8584;SDS011;7180;52.742;11.420;2023-03-31T02:52:57;14.27;;;13.17;;
8584;SDS011;7180;52.742;11.420;2023-03-31T02:57:58;14.77;;;13.57;;
8584;SDS011;7180;52.742;11.420;2023-03-31T03:08:40;14.10;;;13.10;;
8584;SDS011;7180;52.742;11.420;2023-03-31T03:13:39;13.40;;;12.33;;
8584;SDS011;7180;52.742;11.420;2023-03-31T03:18:43;14.00;;;12.90;;
8584;SDS011;7180;52.742;11.420;2023-03-31T03:21:08;13.57;;;12.57;;
8584;SDS011;7180;52.742;11.420;2023-03-31T03:23:33;13.93;;;12.80;;
8584;SDS011;7180;52.742;11.420;2023-03-31T03:25:58;14.20;;;13.20;;
8584;SDS011;7180;52.742;11.420;2023-03-31T03:28:23;14.13;;;12.88;;
8584;SDS011;7180;52.742;11.420;2023-03-31T03:30:48;13.30;;;12.43;;
8584;SDS011;7180;52.742;11.420;2023-03-31T03:33:14;13.80;;;12.80;;
8584;SDS011;7180;52.742;11.420;2023-03-31T03:35:41;13.70;;;12.60;;
8584;SDS011;7180;52.742;11.420;2023-03-31T03:38:06;13.37;;;12.47;;
8584;SDS011;7180;52.742;11.420;2023-03-31T03:40:31;13.37;;;12.47;;
8584;SDS011;7180;52.742;11.420;2023-03-31T03:42:56;13.52;;;12.52;;
8584;SDS011;7180;52.742;11.420;2023-03-31T03:45:21;13.20;;;12.20;;
8584;SDS011;7180;52.742;11.420;2023-03-31T03:47:46;12.50;;;11.70;;
8584;SDS011;7180;52.742;11.420;2023-03-31T03:50:12;13.25;;;12.00;;
8584;SDS011;7180;52.742;11.420;2023-03-31T03:52:37;14.13;;;12.93;;
8584;SDS011;7180;52.742;11.420;2023-03-31T03:55:03;14.40;;;13.30;;
8584;SDS011;7180;52.742;11.420;2023-03-31T03:57:29;14.20;;;12.97;;
8584;SDS011;7180;52.742;11.420;2023-03-31T03:59:54;12.77;;;11.83;;
8584;SDS011;7180;52.742;11.420;2023-03-31T04:02:19;13.33;;;12.23;;
8584;SDS011;7180;52.742;11.420;2023-03-31T04:04:45;12.90;;;11.90;;
8584;SDS011;7180;52.742;11.420;2023-03-31T04:07:10;12.60;;;11.63;;
8584;SDS011;7180;52.742;11.420;2023-03-31T04:09:35;12.77;;;11.70;;
8584;SDS011;7180;52.742;11.420;2023-03-31T04:12:00;12.83;;;11.83;;
8584;SDS011;7180;52.742;11.420;2023-03-31T04:14:25;12.60;;;11.70;;
8584;SDS011;7180;52.742;11.420;2023-03-31T04:16:51;12.00;;;11.20;;
8584;SDS011;7180;52.742;11.420;2023-03-31T04:19:16;11.73;;;11.13;;
8584;SDS011;7180;52.742;11.420;2023-03-31T04:21:41;12.50;;;11.60;;
8584;SDS011;7180;52.742;11.420;2023-03-31T04:24:09;12.10;;;11.30;;
8584;SDS011;7180;52.742;11.420;2023-03-31T04:26:36;12.90;;;12.00;;
8584;SDS011;7180;52.742;11.420;2023-03-31T04:29:11;12.27;;;11.57;;
8584;SDS011;7180;52.742;11.420;2023-03-31T04:31:40;12.47;;;11.37;;
8584;SDS011;7180;52.742;11.420;2023-03-31T04:34:06;12.27;;;11.27;;
8584;SDS011;7180;52.742;11.420;2023-03-31T04:36:37;12.33;;;11.53;;
8584;SDS011;7180;52.742;11.420;2023-03-31T04:39:06;12.30;;;11.40;;
8584;SDS011;7180;52.742;11.420;2023-03-31T04:41:34;11.97;;;11.17;;
8584;SDS011;7180;52.742;11.420;2023-03-31T04:43:59;12.60;;;11.30;;
8584;SDS011;7180;52.742;11.420;2023-03-31T04:46:25;12.30;;;11.40;;
8584;SDS011;7180;52.742;11.420;2023-03-31T04:48:51;13.10;;;12.10;;
8584;SDS011;7180;52.742;11.420;2023-03-31T04:51:17;12.27;;;11.57;;
8584;SDS011;7180;52.742;11.420;2023-03-31T04:53:44;12.50;;;11.70;;
8584;SDS011;7180;52.742;11.420;2023-03-31T04:56:09;11.90;;;11.10;;
8584;SDS011;7180;52.742;11.420;2023-03-31T04:58:34;11.77;;;10.97;;
8584;SDS011;7180;52.742;11.420;2023-03-31T05:00:59;11.60;;;10.93;;
8584;SDS011;7180;52.742;11.420;2023-03-31T05:03:25;11.70;;;10.90;;
8584;SDS011;7180;52.742;11.420;2023-03-31T05:05:50;11.60;;;10.80;;
8584;SDS011;7180;52.742;11.420;2023-03-31T05:08:15;11.80;;;11.10;;
8584;SDS011;7180;52.742;11.420;2023-03-31T05:10:40;11.60;;;10.80;;
8584;SDS011;7180;52.742;11.420;2023-03-31T05:13:07;11.43;;;10.47;;
8584;SDS011;7180;52.742;11.420;2023-03-31T05:15:35;11.30;;;10.50;;
8584;SDS011;7180;52.742;11.420;2023-03-31T05:18:00;11.40;;;10.50;;
8584;SDS011;7180;52.742;11.420;2023-03-31T05:20:26;11.10;;;10.40;;
8584;SDS011;7180;52.742;11.420;2023-03-31T05:22:51;11.53;;;10.60;;
8584;SDS011;7180;52.742;11.420;2023-03-31T05:25:16;11.45;;;10.75;;
8584;SDS011;7180;52.742;11.420;2023-03-31T05:27:44;10.90;;;10.10;;
8584;SDS011;7180;52.742;11.420;2023-03-31T05:30:11;11.40;;;10.50;;
8584;SDS011;7180;52.742;11.420;2023-03-31T05:32:36;11.10;;;10.40;;
8584;SDS011;7180;52.742;11.420;2023-03-31T05:35:01;10.95;;;10.35;;
8584;SDS011;7180;52.742;11.420;2023-03-31T05:37:26;11.50;;;10.60;;
8584;SDS011;7180;52.742;11.420;2023-03-31T05:39:52;11.30;;;10.40;;
8584;SDS011;7180;52.742;11.420;2023-03-31T05:42:17;10.63;;;9.90;;
8584;SDS011;7180;52.742;11.420;2023-03-31T05:44:43;10.47;;;9.77;;
8584;SDS011;7180;52.742;11.420;2023-03-31T05:47:08;11.18;;;10.38;;
8584;SDS011;7180;52.742;11.420;2023-03-31T05:49:33;10.82;;;10.23;;
8584;SDS011;7180;52.742;11.420;2023-03-31T05:51:58;11.53;;;10.73;;
8584;SDS011;7180;52.742;11.420;2023-03-31T05:54:23;10.50;;;9.80;;
8584;SDS011;7180;52.742;11.420;2023-03-31T05:56:49;10.83;;;10.07;;
8584;SDS011;7180;52.742;11.420;2023-03-31T05:59:14;10.80;;;10.00;;
8584;SDS011;7180;52.742;11.420;2023-03-31T06:01:39;10.70;;;10.00;;
8584;SDS011;7180;52.742;11.420;2023-03-31T06:04:04;11.13;;;10.37;;
8584;SDS011;7180;52.742;11.420;2023-03-31T06:06:30;10.47;;;9.87;;
8584;SDS011;7180;52.742;11.420;2023-03-31T06:08:57;10.37;;;9.70;;
8584;SDS011;7180;52.742;11.420;2023-03-31T06:11:22;10.23;;;9.57;;
8584;SDS011;7180;52.742;11.420;2023-03-31T06:13:47;10.30;;;9.70;;
8584;SDS011;7180;52.742;11.420;2023-03-31T06:16:13;11.37;;;10.47;;
8584;SDS011;7180;52.742;11.420;2023-03-31T06:18:39;11.13;;;10.40;;
8584;SDS011;7180;52.742;11.420;2023-03-31T06:21:04;11.10;;;10.30;;
8584;SDS011;7180;52.742;11.420;2023-03-31T06:23:30;10.17;;;9.50;;
8584;SDS011;7180;52.742;11.420;2023-03-31T06:25:59;10.40;;;9.47;;
8584;SDS011;7180;52.742;11.420;2023-03-31T06:28:24;10.20;;;9.30;;
8584;SDS011;7180;52.742;11.420;2023-03-31T06:30:49;9.87;;;9.27;;
8584;SDS011;7180;52.742;11.420;2023-03-31T06:33:15;10.33;;;9.67;;
8584;SDS011;7180;52.742;11.420;2023-03-31T06:35:40;9.87;;;9.27;;
8584;SDS011;7180;52.742;11.420;2023-03-31T06:38:06;9.67;;;9.07;;
8584;SDS011;7180;52.742;11.420;2023-03-31T06:40:31;10.00;;;9.33;;
8584;SDS011;7180;52.742;11.420;2023-03-31T06:42:56;11.20;;;10.30;;
8584;SDS011;7180;52.742;11.420;2023-03-31T06:45:21;10.70;;;10.10;;
8584;SDS011;7180;52.742;11.420;2023-03-31T06:47:46;10.53;;;9.83;;
8584;SDS011;7180;52.742;11.420;2023-03-31T06:50:12;10.43;;;9.77;;
8584;SDS011;7180;52.742;11.420;2023-03-31T06:52:37;10.27;;;9.57;;
8584;SDS011;7180;52.742;11.420;2023-03-31T06:55:02;10.13;;;9.43;;
8584;SDS011;7180;52.742;11.420;2023-03-31T06:57:28;10.10;;;9.40;;
8584;SDS011;7180;52.742;11.420;2023-03-31T06:59:53;10.20;;;9.43;;
8584;SDS011;7180;52.742;11.420;2023-03-31T07:02:19;9.90;;;9.30;;
8584;SDS011;7180;52.742;11.420;2023-03-31T07:04:44;9.47;;;8.80;;
8584;SDS011;7180;52.742;11.420;2023-03-31T07:07:09;9.63;;;8.93;;
8584;SDS011;7180;52.742;11.420;2023-03-31T07:09:35;10.03;;;9.43;;
8584;SDS011;7180;52.742;11.420;2023-03-31T07:12:00;10.93;;;10.23;;
8584;SDS011;7180;52.742;11.420;2023-03-31T07:14:28;10.90;;;10.10;;
8584;SDS011;7180;52.742;11.420;2023-03-31T07:16:54;10.55;;;9.85;;
8584;SDS011;7180;52.742;11.420;2023-03-31T07:19:19;10.50;;;9.70;;
8584;SDS011;7180;52.742;11.420;2023-03-31T07:21:44;10.65;;;9.77;;
8584;SDS011;7180;52.742;11.420;2023-03-31T07:24:09;10.90;;;10.10;;
8584;SDS011;7180;52.742;11.420;2023-03-31T07:26:34;10.75;;;9.95;;
8584;SDS011;7180;52.742;11.420;2023-03-31T07:29:00;9.87;;;9.27;;
8584;SDS011;7180;52.742;11.420;2023-03-31T07:31:25;10.05;;;9.20;;
8584;SDS011;7180;52.742;11.420;2023-03-31T07:33:50;10.50;;;9.65;;
8584;SDS011;7180;52.742;11.420;2023-03-31T07:36:15;9.60;;;8.90;;
8584;SDS011;7180;52.742;11.420;2023-03-31T07:38:41;9.33;;;8.63;;
8584;SDS011;7180;52.742;11.420;2023-03-31T07:41:09;9.10;;;8.50;;
8584;SDS011;7180;52.742;11.420;2023-03-31T07:43:34;9.60;;;8.90;;
8584;SDS011;7180;52.742;11.420;2023-03-31T07:45:59;9.90;;;9.13;;
8584;SDS011;7180;52.742;11.420;2023-03-31T07:48:24;10.10;;;9.40;;
8584;SDS011;7180;52.742;11.420;2023-03-31T07:50:52;10.70;;;9.70;;
8584;SDS011;7180;52.742;11.420;2023-03-31T07:53:17;10.23;;;9.43;;
8584;SDS011;7180;52.742;11.420;2023-03-31T07:55:42;10.10;;;9.37;;
8584;SDS011;7180;52.742;11.420;2023-03-31T07:58:08;10.02;;;9.15;;
8584;SDS011;7180;52.742;11.420;2023-03-31T08:00:35;8.93;;;8.33;;
8584;SDS011;7180;52.742;11.420;2023-03-31T08:03:00;9.17;;;8.43;;
8584;SDS011;7180;52.742;11.420;2023-03-31T08:05:26;9.20;;;8.50;;
8584;SDS011;7180;52.742;11.420;2023-03-31T08:07:51;9.10;;;8.40;;
8584;SDS011;7180;52.742;11.420;2023-03-31T08:10:18;9.60;;;8.80;;
8584;SDS011;7180;52.742;11.420;2023-03-31T08:12:43;9.00;;;8.40;;
8584;SDS011;7180;52.742;11.420;2023-03-31T08:15:09;9.93;;;9.13;;
8584;SDS011;7180;52.742;11.420;2023-03-31T08:17:34;9.43;;;8.63;;
8584;SDS011;7180;52.742;11.420;2023-03-31T08:20:00;9.73;;;8.97;;
8584;SDS011;7180;52.742;11.420;2023-03-31T08:22:25;9.23;;;8.50;;
8584;SDS011;7180;52.742;11.420;2023-03-31T08:24:50;9.67;;;8.70;;
8584;SDS011;7180;52.742;11.420;2023-03-31T08:27:15;9.90;;;9.20;;
8584;SDS011;7180;52.742;11.420;2023-03-31T08:29:41;9.97;;;9.27;;
8584;SDS011;7180;52.742;11.420;2023-03-31T08:32:06;10.03;;;9.30;;
8584;SDS011;7180;52.742;11.420;2023-03-31T08:34:31;9.50;;;9.00;;
8584;SDS011;7180;52.742;11.420;2023-03-31T08:36:56;9.43;;;8.83;;
8584;SDS011;7180;52.742;11.420;2023-03-31T08:39:21;9.43;;;8.65;;
8584;SDS011;7180;52.742;11.420;2023-03-31T08:41:59;10.20;;;9.50;;
8584;SDS011;7180;52.742;11.420;2023-03-31T08:44:28;9.30;;;8.50;;
8584;SDS011;7180;52.742;11.420;2023-03-31T08:46:55;9.40;;;8.70;;
8584;SDS011;7180;52.742;11.420;2023-03-31T08:49:21;9.50;;;8.90;;
8584;SDS011;7180;52.742;11.420;2023-03-31T08:51:57;9.30;;;8.70;;
8584;SDS011;7180;52.742;11.420;2023-03-31T08:54:33;8.57;;;8.07;;
8584;SDS011;7180;52.742;11.420;2023-03-31T08:57:01;10.30;;;9.37;;
8584;SDS011;7180;52.742;11.420;2023-03-31T08:59:32;10.30;;;9.50;;
8584;SDS011;7180;52.742;11.420;2023-03-31T09:09:40;10.60;;;9.80;;
8584;SDS011;7180;52.742;11.420;2023-03-31T09:12:10;9.47;;;8.83;;
8584;SDS011;7180;52.742;11.420;2023-03-31T09:17:43;9.70;;;8.93;;
8584;SDS011;7180;52.742;11.420;2023-03-31T09:20:20;10.47;;;9.63;;
8584;SDS011;7180;52.742;11.420;2023-03-31T09:23:05;9.93;;;9.23;;
8584;SDS011;7180;52.742;11.420;2023-03-31T09:25:35;10.07;;;9.47;;
8584;SDS011;7180;52.742;11.420;2023-03-31T09:28:02;10.17;;;9.47;;
8584;SDS011;7180;52.742;11.420;2023-03-31T09:30:29;10.07;;;9.47;;
8584;SDS011;7180;52.742;11.420;2023-03-31T09:35:36;10.33;;;9.63;;
8584;SDS011;7180;52.742;11.420;2023-03-31T09:38:01;11.40;;;10.60;;
8584;SDS011;7180;52.742;11.420;2023-03-31T09:40:27;11.43;;;10.53;;
8584;SDS011;7180;52.742;11.420;2023-03-31T09:43:35;9.83;;;9.17;;
8584;SDS011;7180;52.742;11.420;2023-03-31T09:45:41;9.90;;;9.30;;
8584;SDS011;7180;52.742;11.420;2023-03-31T09:48:13;9.80;;;9.10;;
8584;SDS011;7180;52.742;11.420;2023-03-31T09:50:41;10.37;;;9.57;;
8584;SDS011;7180;52.742;11.420;2023-03-31T09:53:09;10.33;;;9.63;;
8584;SDS011;7180;52.742;11.420;2023-03-31T09:58:05;10.93;;;9.90;;
8584;SDS011;7180;52.742;11.420;2023-03-31T10:00:32;9.60;;;9.00;;
8584;SDS011;7180;52.742;11.420;2023-03-31T10:03:00;9.77;;;9.10;;
8584;SDS011;7180;52.742;11.420;2023-03-31T10:07:52;10.20;;;9.50;;
8584;SDS011;7180;52.742;11.420;2023-03-31T10:10:26;9.70;;;9.00;;
8584;SDS011;7180;52.742;11.420;2023-03-31T10:12:52;10.33;;;9.60;;
8584;SDS011;7180;52.742;11.420;2023-03-31T10:15:25;9.37;;;8.77;;
8584;SDS011;7180;52.742;11.420;2023-03-31T10:17:50;10.07;;;9.37;;
8584;SDS011;7180;52.742;11.420;2023-03-31T10:23:03;8.70;;;8.10;;
8584;SDS011;7180;52.742;11.420;2023-03-31T10:25:29;8.80;;;8.27;;
8584;SDS011;7180;52.742;11.420;2023-03-31T10:27:56;9.47;;;8.77;;
8584;SDS011;7180;52.742;11.420;2023-03-31T10:30:23;9.00;;;8.30;;
8584;SDS011;7180;52.742;11.420;2023-03-31T10:32:49;10.10;;;9.40;;
8584;SDS011;7180;52.742;11.420;2023-03-31T10:35:21;10.17;;;9.53;;
8584;SDS011;7180;52.742;11.420;2023-03-31T10:37:48;10.07;;;9.37;;
8584;SDS011;7180;52.742;11.420;2023-03-31T10:40:18;10.50;;;9.80;;
8584;SDS011;7180;52.742;11.420;2023-03-31T10:42:45;10.30;;;9.60;;
8584;SDS011;7180;52.742;11.420;2023-03-31T10:45:12;9.93;;;9.30;;
8584;SDS011;7180;52.742;11.420;2023-03-31T10:47:47;10.90;;;10.10;;
8584;SDS011;7180;52.742;11.420;2023-03-31T10:50:13;10.70;;;9.80;;
8584;SDS011;7180;52.742;11.420;2023-03-31T10:52:43;11.13;;;10.23;;
8584;SDS011;7180;52.742;11.420;2023-03-31T10:55:12;10.40;;;9.60;;
8584;SDS011;7180;52.742;11.420;2023-03-31T11:08:18;9.50;;;8.87;;
8584;SDS011;7180;52.742;11.420;2023-03-31T11:18:28;10.67;;;9.87;;
8584;SDS011;7180;52.742;11.420;2023-03-31T11:23:25;10.93;;;10.13;;
8584;SDS011;7180;52.742;11.420;2023-03-31T11:29:10;11.23;;;10.60;;
8584;SDS011;7180;52.742;11.420;2023-03-31T11:34:21;12.43;;;11.60;;
8584;SDS011;7180;52.742;11.420;2023-03-31T11:37:07;11.50;;;10.67;;
8584;SDS011;7180;52.742;11.420;2023-03-31T11:42:13;12.50;;;11.60;;
8584;SDS011;7180;52.742;11.420;2023-03-31T11:44:40;12.40;;;11.30;;
8584;SDS011;7180;52.742;11.420;2023-03-31T11:47:08;12.10;;;11.20;;
8584;SDS011;7180;52.742;11.420;2023-03-31T11:49:37;12.00;;;11.20;;
8584;SDS011;7180;52.742;11.420;2023-03-31T11:55:17;11.90;;;11.10;;
8584;SDS011;7180;52.742;11.420;2023-03-31T11:58:00;12.67;;;11.47;;
8584;SDS011;7180;52.742;11.420;2023-03-31T12:00:27;11.03;;;10.23;;
8584;SDS011;7180;52.742;11.420;2023-03-31T12:05:43;9.97;;;9.07;;
8584;SDS011;7180;52.742;11.420;2023-03-31T12:08:12;11.23;;;10.43;;
8584;SDS011;7180;52.742;11.420;2023-03-31T12:10:44;11.60;;;10.80;;
8584;SDS011;7180;52.742;11.420;2023-03-31T12:13:19;11.90;;;11.00;;
8584;SDS011;7180;52.742;11.420;2023-03-31T12:16:03;11.87;;;11.00;;
8584;SDS011;7180;52.742;11.420;2023-03-31T12:18:31;11.57;;;10.77;;
8584;SDS011;7180;52.742;11.420;2023-03-31T12:21:00;11.70;;;10.90;;
8584;SDS011;7180;52.742;11.420;2023-03-31T12:23:27;11.07;;;10.23;;
8584;SDS011;7180;52.742;11.420;2023-03-31T12:28:27;10.60;;;10.10;;
8584;SDS011;7180;52.742;11.420;2023-03-31T12:30:53;10.40;;;9.90;;
8584;SDS011;7180;52.742;11.420;2023-03-31T12:33:26;10.63;;;10.03;;
8584;SDS011;7180;52.742;11.420;2023-03-31T12:36:01;9.90;;;9.40;;
8584;SDS011;7180;52.742;11.420;2023-03-31T12:38:34;10.47;;;9.87;;
8584;SDS011;7180;52.742;11.420;2023-03-31T12:49:29;10.00;;;9.50;;
8584;SDS011;7180;52.742;11.420;2023-03-31T12:52:03;8.90;;;8.50;;
8584;SDS011;7180;52.742;11.420;2023-03-31T12:57:19;8.50;;;8.10;;
8584;SDS011;7180;52.742;11.420;2023-03-31T12:59:45;9.27;;;8.67;;
8584;SDS011;7180;52.742;11.420;2023-03-31T13:02:29;9.00;;;8.60;;
8584;SDS011;7180;52.742;11.420;2023-03-31T13:04:55;9.23;;;8.83;;
8584;SDS011;7180;52.742;11.420;2023-03-31T13:09:55;9.10;;;8.70;;
8584;SDS011;7180;52.742;11.420;2023-03-31T13:12:21;8.90;;;8.50;;
8584;SDS011;7180;52.742;11.420;2023-03-31T13:14:48;9.30;;;8.80;;
8584;SDS011;7180;52.742;11.420;2023-03-31T13:19:47;8.47;;;8.03;;
8584;SDS011;7180;52.742;11.420;2023-03-31T13:27:47;8.73;;;8.33;;
8584;SDS011;7180;52.742;11.420;2023-03-31T13:33:03;9.00;;;8.50;;
8584;SDS011;7180;52.742;11.420;2023-03-31T13:35:29;8.60;;;8.10;;
8584;SDS011;7180;52.742;11.420;2023-03-31T13:40:31;7.90;;;7.50;;
8584;SDS011;7180;52.742;11.420;2023-03-31T13:43:06;8.43;;;7.90;;
8584;SDS011;7180;52.742;11.420;2023-03-31T13:51:13;9.23;;;8.60;;
8584;SDS011;7180;52.742;11.420;2023-03-31T13:53:48;8.80;;;8.30;;
8584;SDS011;7180;52.742;11.420;2023-03-31T14:07:22;8.27;;;7.77;;
8584;SDS011;7180;52.742;11.420;2023-03-31T14:09:51;8.07;;;7.67;;
8584;SDS011;7180;52.742;11.420;2023-03-31T14:12:20;8.00;;;7.60;;
8584;SDS011;7180;52.742;11.420;2023-03-31T14:14:46;7.33;;;6.97;;
8584;SDS011;7180;52.742;11.420;2023-03-31T14:17:11;8.40;;;7.90;;
8584;SDS011;7180;52.742;11.420;2023-03-31T14:25:08;8.03;;;7.63;;
8584;SDS011;7180;52.742;11.420;2023-03-31T14:27:41;8.37;;;7.87;;
8584;SDS011;7180;52.742;11.420;2023-03-31T14:35:32;8.60;;;8.20;;
8584;SDS011;7180;52.742;11.420;2023-03-31T14:38:02;8.40;;;8.00;;
8584;SDS011;7180;52.742;11.420;2023-03-31T14:40:28;8.50;;;8.10;;
8584;SDS011;7180;52.742;11.420;2023-03-31T14:42:53;9.03;;;8.47;;
8584;SDS011;7180;52.742;11.420;2023-03-31T14:45:22;8.60;;;8.20;;
8584;SDS011;7180;52.742;11.420;2023-03-31T14:47:55;8.90;;;8.40;;
8584;SDS011;7180;52.742;11.420;2023-03-31T14:50:21;8.80;;;8.40;;
8584;SDS011;7180;52.742;11.420;2023-03-31T14:52:51;8.83;;;8.43;;
8584;SDS011;7180;52.742;11.420;2023-03-31T14:55:18;9.00;;;8.60;;
8584;SDS011;7180;52.742;11.420;2023-03-31T14:57:44;9.10;;;8.70;;
8584;SDS011;7180;52.742;11.420;2023-03-31T15:00:15;8.87;;;8.37;;
8584;SDS011;7180;52.742;11.420;2023-03-31T15:02:42;8.73;;;8.33;;
8584;SDS011;7180;52.742;11.420;2023-03-31T15:05:09;9.00;;;8.47;;
8584;SDS011;7180;52.742;11.420;2023-03-31T15:07:35;8.73;;;8.23;;
8584;SDS011;7180;52.742;11.420;2023-03-31T15:10:00;8.73;;;8.33;;
8584;SDS011;7180;52.742;11.420;2023-03-31T15:12:26;9.00;;;8.60;;
8584;SDS011;7180;52.742;11.420;2023-03-31T15:15:02;9.20;;;8.70;;
8584;SDS011;7180;52.742;11.420;2023-03-31T15:17:28;9.30;;;8.80;;
8584;SDS011;7180;52.742;11.420;2023-03-31T15:19:57;9.63;;;9.03;;
8584;SDS011;7180;52.742;11.420;2023-03-31T15:22:23;9.60;;;9.10;;
8584;SDS011;7180;52.742;11.420;2023-03-31T15:24:50;9.13;;;8.63;;
8584;SDS011;7180;52.742;11.420;2023-03-31T15:27:34;9.40;;;8.90;;
8584;SDS011;7180;52.742;11.420;2023-03-31T15:30:03;9.43;;;8.93;;
8584;SDS011;7180;52.742;11.420;2023-03-31T15:32:30;9.40;;;9.00;;
8584;SDS011;7180;52.742;11.420;2023-03-31T15:34:56;9.03;;;8.43;;
8584;SDS011;7180;52.742;11.420;2023-03-31T15:37:23;9.50;;;9.00;;
8584;SDS011;7180;52.742;11.420;2023-03-31T15:39:51;9.40;;;8.90;;
8584;SDS011;7180;52.742;11.420;2023-03-31T15:42:19;10.70;;;10.10;;
8584;SDS011;7180;52.742;11.420;2023-03-31T15:44:45;10.50;;;9.90;;
8584;SDS011;7180;52.742;11.420;2023-03-31T15:47:11;10.33;;;9.73;;
8584;SDS011;7180;52.742;11.420;2023-03-31T15:49:45;10.63;;;10.13;;
8584;SDS011;7180;52.742;11.420;2023-03-31T15:52:18;10.57;;;10.07;;
8584;SDS011;7180;52.742;11.420;2023-03-31T15:54:44;10.20;;;9.70;;
8584;SDS011;7180;52.742;11.420;2023-03-31T15:57:09;10.40;;;9.90;;
8584;SDS011;7180;52.742;11.420;2023-03-31T15:59:48;10.37;;;9.87;;
8584;SDS011;7180;52.742;11.420;2023-03-31T16:02:15;10.23;;;9.73;;
8584;SDS011;7180;52.742;11.420;2023-03-31T16:04:41;10.90;;;10.20;;
8584;SDS011;7180;52.742;11.420;2023-03-31T16:07:14;11.03;;;10.30;;
8584;SDS011;7180;52.742;11.420;2023-03-31T16:12:09;12.37;;;11.57;;
8584;SDS011;7180;52.742;11.420;2023-03-31T16:14:47;11.20;;;10.50;;
8584;SDS011;7180;52.742;11.420;2023-03-31T16:17:23;11.47;;;10.77;;
8584;SDS011;7180;52.742;11.420;2023-03-31T16:19:53;11.40;;;10.70;;
8584;SDS011;7180;52.742;11.420;2023-03-31T16:22:26;11.70;;;10.70;;
8584;SDS011;7180;52.742;11.420;2023-03-31T16:24:54;10.80;;;10.10;;
8584;SDS011;7180;52.742;11.420;2023-03-31T16:27:19;11.33;;;10.70;;
8584;SDS011;7180;52.742;11.420;2023-03-31T16:29:45;10.70;;;10.10;;
8584;SDS011;7180;52.742;11.420;2023-03-31T16:32:12;11.33;;;10.63;;
8584;SDS011;7180;52.742;11.420;2023-03-31T16:34:57;11.37;;;10.60;;
8584;SDS011;7180;52.742;11.420;2023-03-31T16:37:23;10.90;;;10.30;;
8584;SDS011;7180;52.742;11.420;2023-03-31T16:39:48;10.57;;;9.97;;
8584;SDS011;7180;52.742;11.420;2023-03-31T16:42:13;10.10;;;9.60;;
8584;SDS011;7180;52.742;11.420;2023-03-31T16:44:39;11.07;;;10.37;;
8584;SDS011;7180;52.742;11.420;2023-03-31T16:47:04;11.60;;;11.00;;
8584;SDS011;7180;52.742;11.420;2023-03-31T16:49:29;11.10;;;10.50;;
8584;SDS011;7180;52.742;11.420;2023-03-31T16:51:55;11.80;;;11.20;;
8584;SDS011;7180;52.742;11.420;2023-03-31T16:54:20;11.70;;;10.90;;
8584;SDS011;7180;52.742;11.420;2023-03-31T16:56:45;11.37;;;10.77;;
8584;SDS011;7180;52.742;11.420;2023-03-31T16:59:11;10.70;;;10.20;;
8584;SDS011;7180;52.742;11.420;2023-03-31T17:01:37;11.67;;;10.97;;
8584;SDS011;7180;52.742;11.420;2023-03-31T17:04:02;11.70;;;11.10;;
8584;SDS011;7180;52.742;11.420;2023-03-31T17:06:27;11.75;;;11.05;;
8584;SDS011;7180;52.742;11.420;2023-03-31T17:08:52;11.68;;;11.00;;
8584;SDS011;7180;52.742;11.420;2023-03-31T17:11:17;11.80;;;11.00;;
8584;SDS011;7180;52.742;11.420;2023-03-31T17:13:42;11.50;;;10.82;;
8584;SDS011;7180;52.742;11.420;2023-03-31T17:16:08;11.63;;;11.03;;
8584;SDS011;7180;52.742;11.420;2023-03-31T17:18:34;11.20;;;10.70;;